SSEC Globe Logo

Space Science and Engineering Center

Regional Terminal Forecasts

KMSN 251200Z 2512/2612 00000KT P6SM SCT050 FM251700 VRB03KT
     P6SM FEW220 FM260800 00000KT P6SM SKC FM261000 00000KT
     5SM BR FEW250=
TAF KMKE 251120Z 2512/2618 VRB03KT P6SM FEW230 FM251700
     06006KT P6SM FEW130 FM260000 09005KT P6SM FEW230
     FM260400 00000KT P6SM SKC FM261500 13005KT P6SM SKC=
TAF KGRB 251137Z 2512/2612 34003KT P6SM SCT035 BKN060
     FM251600 VRB03KT P6SM SCT035 FM252100 10006KT P6SM SKC
     FM260100 VRB03KT P6SM SKC=
TAF KAUW 251137Z 2512/2612 08003KT P6SM SKC FM251400 VRB03KT
     P6SM SCT025 FM251600 16003KT P6SM SCT035 FM251800
     15005KT P6SM SCT040 FM260100 12004KT P6SM SKC=
KEAU 251120Z 2512/2612 14003KT P6SM SKC TEMPO 2512/2513 2SM
     BR=
TAF AMD KLSE 251306Z 2513/2612 VRB03KT P6SM FEW250 FM251400
     15006KT P6SM FEW250=
TAF AMD KDBQ 251151Z 2512/2612 07005KT P6SM FEW250 TEMPO
     2512/2514 1/2SM FG FM251400 11006KT P6SM FEW250=
TAF KRFD 251120Z 2512/2612 08005KT P6SM FEW025 SCT250=
KORD 251120Z 2512/2618 06007KT P6SM FEW050 SCT250=